sensor_id;sensor_type;location;lat;lon;timestamp;P1;durP1;ratioP1;P2;durP2;ratioP2
46355;SDS011;32066;49.474;11.106;2024-01-16T00:01:02;10.80;;;5.40;;
46355;SDS011;32066;49.474;11.106;2024-01-16T00:03:31;11.70;;;4.70;;
46355;SDS011;32066;49.474;11.106;2024-01-16T00:06:00;8.50;;;4.95;;
46355;SDS011;32066;49.474;11.106;2024-01-16T00:08:29;10.25;;;5.03;;
46355;SDS011;32066;49.474;11.106;2024-01-16T00:10:58;10.23;;;4.95;;
46355;SDS011;32066;49.474;11.106;2024-01-16T00:13:29;9.23;;;5.15;;
46355;SDS011;32066;49.474;11.106;2024-01-16T00:15:58;8.18;;;4.63;;
46355;SDS011;32066;49.474;11.106;2024-01-16T00:18:26;8.70;;;4.40;;
46355;SDS011;32066;49.474;11.106;2024-01-16T00:20:55;9.77;;;4.70;;
46355;SDS011;32066;49.474;11.106;2024-01-16T00:23:24;9.15;;;4.50;;
46355;SDS011;32066;49.474;11.106;2024-01-16T00:25:52;11.18;;;4.60;;
46355;SDS011;32066;49.474;11.106;2024-01-16T00:28:21;8.43;;;4.03;;
46355;SDS011;32066;49.474;11.106;2024-01-16T00:30:52;10.07;;;4.70;;
46355;SDS011;32066;49.474;11.106;2024-01-16T00:33:21;8.25;;;4.25;;
46355;SDS011;32066;49.474;11.106;2024-01-16T00:35:49;8.02;;;4.00;;
46355;SDS011;32066;49.474;11.106;2024-01-16T00:38:18;8.40;;;4.40;;
46355;SDS011;32066;49.474;11.106;2024-01-16T00:40:47;9.65;;;5.07;;
46355;SDS011;32066;49.474;11.106;2024-01-16T00:43:16;7.90;;;4.07;;
46355;SDS011;32066;49.474;11.106;2024-01-16T00:45:44;8.63;;;4.10;;
46355;SDS011;32066;49.474;11.106;2024-01-16T00:48:16;9.55;;;4.55;;
46355;SDS011;32066;49.474;11.106;2024-01-16T00:50:46;11.23;;;4.95;;
46355;SDS011;32066;49.474;11.106;2024-01-16T00:53:15;9.02;;;4.55;;
46355;SDS011;32066;49.474;11.106;2024-01-16T00:55:44;9.90;;;4.50;;
46355;SDS011;32066;49.474;11.106;2024-01-16T00:58:10;9.10;;;4.00;;
46355;SDS011;32066;49.474;11.106;2024-01-16T01:00:39;11.82;;;4.82;;
46355;SDS011;32066;49.474;11.106;2024-01-16T01:03:07;6.88;;;4.00;;
46355;SDS011;32066;49.474;11.106;2024-01-16T01:05:39;10.18;;;4.60;;
46355;SDS011;32066;49.474;11.106;2024-01-16T01:08:08;9.30;;;4.25;;
46355;SDS011;32066;49.474;11.106;2024-01-16T01:10:36;8.38;;;4.00;;
46355;SDS011;32066;49.474;11.106;2024-01-16T01:13:05;7.25;;;4.15;;
46355;SDS011;32066;49.474;11.106;2024-01-16T01:15:34;8.00;;;4.32;;
46355;SDS011;32066;49.474;11.106;2024-01-16T01:18:02;11.00;;;4.90;;
46355;SDS011;32066;49.474;11.106;2024-01-16T01:20:32;9.02;;;4.53;;
46355;SDS011;32066;49.474;11.106;2024-01-16T01:23:00;10.13;;;4.75;;
46355;SDS011;32066;49.474;11.106;2024-01-16T01:25:29;9.02;;;4.28;;
46355;SDS011;32066;49.474;11.106;2024-01-16T01:27:57;8.68;;;4.80;;
46355;SDS011;32066;49.474;11.106;2024-01-16T01:30:26;8.07;;;4.65;;
46355;SDS011;32066;49.474;11.106;2024-01-16T01:32:55;7.68;;;4.13;;
46355;SDS011;32066;49.474;11.106;2024-01-16T01:35:23;8.88;;;4.50;;
46355;SDS011;32066;49.474;11.106;2024-01-16T01:37:52;8.98;;;4.57;;
46355;SDS011;32066;49.474;11.106;2024-01-16T01:40:23;13.05;;;4.68;;
46355;SDS011;32066;49.474;11.106;2024-01-16T01:42:52;11.98;;;4.50;;
46355;SDS011;32066;49.474;11.106;2024-01-16T01:45:21;10.20;;;4.65;;
46355;SDS011;32066;49.474;11.106;2024-01-16T01:47:49;11.95;;;5.97;;
46355;SDS011;32066;49.474;11.106;2024-01-16T01:50:18;8.48;;;4.72;;
46355;SDS011;32066;49.474;11.106;2024-01-16T01:52:47;10.90;;;5.38;;
46355;SDS011;32066;49.474;11.106;2024-01-16T01:55:16;8.50;;;4.75;;
46355;SDS011;32066;49.474;11.106;2024-01-16T01:57:47;9.00;;;5.00;;
46355;SDS011;32066;49.474;11.106;2024-01-16T02:00:16;9.10;;;5.18;;
46355;SDS011;32066;49.474;11.106;2024-01-16T02:02:45;8.60;;;4.70;;
46355;SDS011;32066;49.474;11.106;2024-01-16T02:05:14;10.60;;;5.25;;
46355;SDS011;32066;49.474;11.106;2024-01-16T02:07:43;11.70;;;5.65;;
46355;SDS011;32066;49.474;11.106;2024-01-16T02:10:12;10.95;;;5.20;;
46355;SDS011;32066;49.474;11.106;2024-01-16T02:12:41;9.77;;;5.15;;
46355;SDS011;32066;49.474;11.106;2024-01-16T02:15:12;9.75;;;5.22;;
46355;SDS011;32066;49.474;11.106;2024-01-16T02:17:40;11.23;;;5.13;;
46355;SDS011;32066;49.474;11.106;2024-01-16T02:20:09;9.55;;;5.40;;
46355;SDS011;32066;49.474;11.106;2024-01-16T02:22:38;12.32;;;5.88;;
46355;SDS011;32066;49.474;11.106;2024-01-16T02:25:13;10.40;;;5.22;;
46355;SDS011;32066;49.474;11.106;2024-01-16T02:27:41;9.60;;;5.68;;
46355;SDS011;32066;49.474;11.106;2024-01-16T02:30:10;12.48;;;5.85;;
46355;SDS011;32066;49.474;11.106;2024-01-16T02:32:40;9.65;;;5.68;;
46355;SDS011;32066;49.474;11.106;2024-01-16T02:35:09;10.10;;;5.60;;
46355;SDS011;32066;49.474;11.106;2024-01-16T02:37:38;10.02;;;5.32;;
46355;SDS011;32066;49.474;11.106;2024-01-16T02:40:07;9.32;;;5.00;;
46355;SDS011;32066;49.474;11.106;2024-01-16T02:42:39;10.55;;;5.38;;
46355;SDS011;32066;49.474;11.106;2024-01-16T02:45:08;12.60;;;5.50;;
46355;SDS011;32066;49.474;11.106;2024-01-16T02:47:37;8.75;;;5.30;;
46355;SDS011;32066;49.474;11.106;2024-01-16T02:50:06;10.27;;;5.32;;
46355;SDS011;32066;49.474;11.106;2024-01-16T02:52:36;11.93;;;6.10;;
46355;SDS011;32066;49.474;11.106;2024-01-16T02:55:05;11.15;;;5.40;;
46355;SDS011;32066;49.474;11.106;2024-01-16T02:57:35;11.07;;;5.38;;
46355;SDS011;32066;49.474;11.106;2024-01-16T03:00:07;12.32;;;5.00;;
46355;SDS011;32066;49.474;11.106;2024-01-16T03:02:36;9.55;;;5.75;;
46355;SDS011;32066;49.474;11.106;2024-01-16T03:05:05;11.18;;;5.85;;
46355;SDS011;32066;49.474;11.106;2024-01-16T03:07:34;11.60;;;5.60;;
46355;SDS011;32066;49.474;11.106;2024-01-16T03:10:03;15.13;;;5.63;;
46355;SDS011;32066;49.474;11.106;2024-01-16T03:12:32;9.50;;;5.07;;
46355;SDS011;32066;49.474;11.106;2024-01-16T03:15:00;10.90;;;4.95;;
46355;SDS011;32066;49.474;11.106;2024-01-16T03:17:33;9.80;;;5.27;;
46355;SDS011;32066;49.474;11.106;2024-01-16T03:20:01;13.35;;;5.93;;
46355;SDS011;32066;49.474;11.106;2024-01-16T03:22:31;8.95;;;5.18;;
46355;SDS011;32066;49.474;11.106;2024-01-16T03:24:59;10.05;;;5.15;;
46355;SDS011;32066;49.474;11.106;2024-01-16T03:27:28;9.77;;;5.15;;
46355;SDS011;32066;49.474;11.106;2024-01-16T03:29:57;13.85;;;6.20;;
46355;SDS011;32066;49.474;11.106;2024-01-16T03:32:25;9.45;;;5.03;;
46355;SDS011;32066;49.474;11.106;2024-01-16T03:34:57;11.20;;;5.47;;
46355;SDS011;32066;49.474;11.106;2024-01-16T03:37:25;10.93;;;5.43;;
46355;SDS011;32066;49.474;11.106;2024-01-16T03:39:54;9.85;;;5.75;;
46355;SDS011;32066;49.474;11.106;2024-01-16T03:42:23;12.40;;;6.40;;
46355;SDS011;32066;49.474;11.106;2024-01-16T03:44:52;9.18;;;5.28;;
46355;SDS011;32066;49.474;11.106;2024-01-16T03:47:20;9.60;;;5.53;;
46355;SDS011;32066;49.474;11.106;2024-01-16T03:49:49;10.82;;;6.00;;
46355;SDS011;32066;49.474;11.106;2024-01-16T03:52:20;11.68;;;6.03;;
46355;SDS011;32066;49.474;11.106;2024-01-16T03:54:49;12.52;;;5.35;;
46355;SDS011;32066;49.474;11.106;2024-01-16T03:57:17;10.40;;;5.93;;
46355;SDS011;32066;49.474;11.106;2024-01-16T03:59:46;13.38;;;5.80;;
46355;SDS011;32066;49.474;11.106;2024-01-16T04:02:15;11.02;;;6.10;;
46355;SDS011;32066;49.474;11.106;2024-01-16T04:04:43;13.43;;;6.47;;
46355;SDS011;32066;49.474;11.106;2024-01-16T04:07:12;9.70;;;6.13;;
46355;SDS011;32066;49.474;11.106;2024-01-16T04:09:44;11.32;;;5.78;;
46355;SDS011;32066;49.474;11.106;2024-01-16T04:12:12;12.63;;;5.88;;
46355;SDS011;32066;49.474;11.106;2024-01-16T04:14:41;13.93;;;6.47;;
46355;SDS011;32066;49.474;11.106;2024-01-16T04:17:10;10.70;;;5.40;;
46355;SDS011;32066;49.474;11.106;2024-01-16T04:19:38;12.18;;;6.10;;
46355;SDS011;32066;49.474;11.106;2024-01-16T04:22:07;10.88;;;6.20;;
46355;SDS011;32066;49.474;11.106;2024-01-16T04:24:36;10.30;;;6.30;;
46355;SDS011;32066;49.474;11.106;2024-01-16T04:27:07;13.60;;;6.50;;
46355;SDS011;32066;49.474;11.106;2024-01-16T04:29:37;9.63;;;6.18;;
46355;SDS011;32066;49.474;11.106;2024-01-16T04:32:06;13.15;;;5.80;;
46355;SDS011;32066;49.474;11.106;2024-01-16T04:34:34;11.18;;;6.20;;
46355;SDS011;32066;49.474;11.106;2024-01-16T04:37:03;9.80;;;6.05;;
46355;SDS011;32066;49.474;11.106;2024-01-16T04:39:32;12.98;;;5.60;;
46355;SDS011;32066;49.474;11.106;2024-01-16T04:42:00;10.68;;;6.20;;
46355;SDS011;32066;49.474;11.106;2024-01-16T04:44:32;11.10;;;6.25;;
46355;SDS011;32066;49.474;11.106;2024-01-16T04:47:00;12.73;;;6.47;;
46355;SDS011;32066;49.474;11.106;2024-01-16T04:49:29;9.95;;;6.15;;
46355;SDS011;32066;49.474;11.106;2024-01-16T04:51:58;11.50;;;5.97;;
46355;SDS011;32066;49.474;11.106;2024-01-16T04:54:27;13.02;;;6.65;;
46355;SDS011;32066;49.474;11.106;2024-01-16T04:56:56;12.05;;;6.20;;
46355;SDS011;32066;49.474;11.106;2024-01-16T04:59:22;11.18;;;6.22;;
46355;SDS011;32066;49.474;11.106;2024-01-16T05:01:53;13.57;;;6.57;;
46355;SDS011;32066;49.474;11.106;2024-01-16T05:04:22;10.98;;;5.88;;
46355;SDS011;32066;49.474;11.106;2024-01-16T05:06:50;11.80;;;5.93;;
46355;SDS011;32066;49.474;11.106;2024-01-16T05:09:20;10.70;;;6.22;;
46355;SDS011;32066;49.474;11.106;2024-01-16T05:11:48;13.63;;;6.63;;
46355;SDS011;32066;49.474;11.106;2024-01-16T05:14:17;12.35;;;6.00;;
46355;SDS011;32066;49.474;11.106;2024-01-16T05:16:50;13.88;;;7.28;;
46355;SDS011;32066;49.474;11.106;2024-01-16T05:19:21;11.98;;;5.85;;
46355;SDS011;32066;49.474;11.106;2024-01-16T05:21:50;13.10;;;6.78;;
46355;SDS011;32066;49.474;11.106;2024-01-16T05:24:19;12.32;;;6.65;;
46355;SDS011;32066;49.474;11.106;2024-01-16T05:26:47;11.65;;;6.32;;
46355;SDS011;32066;49.474;11.106;2024-01-16T05:29:16;13.57;;;6.40;;
46355;SDS011;32066;49.474;11.106;2024-01-16T05:31:46;10.77;;;5.97;;
46355;SDS011;32066;49.474;11.106;2024-01-16T05:34:17;12.55;;;6.47;;
46355;SDS011;32066;49.474;11.106;2024-01-16T05:36:46;13.80;;;6.47;;
46355;SDS011;32066;49.474;11.106;2024-01-16T05:39:14;13.80;;;6.88;;
46355;SDS011;32066;49.474;11.106;2024-01-16T05:41:43;10.30;;;5.93;;
46355;SDS011;32066;49.474;11.106;2024-01-16T05:44:12;11.32;;;6.00;;
46355;SDS011;32066;49.474;11.106;2024-01-16T05:46:41;12.32;;;6.80;;
46355;SDS011;32066;49.474;11.106;2024-01-16T05:49:09;10.77;;;6.15;;
46355;SDS011;32066;49.474;11.106;2024-01-16T05:51:40;12.32;;;6.60;;
46355;SDS011;32066;49.474;11.106;2024-01-16T05:54:09;12.52;;;6.32;;
46355;SDS011;32066;49.474;11.106;2024-01-16T05:56:38;14.10;;;6.15;;
46355;SDS011;32066;49.474;11.106;2024-01-16T05:59:06;11.27;;;6.03;;
46355;SDS011;32066;49.474;11.106;2024-01-16T06:01:35;11.93;;;6.78;;
46355;SDS011;32066;49.474;11.106;2024-01-16T06:04:04;14.52;;;7.07;;
46355;SDS011;32066;49.474;11.106;2024-01-16T06:06:32;11.15;;;6.63;;
46355;SDS011;32066;49.474;11.106;2024-01-16T06:09:03;10.43;;;5.85;;
46355;SDS011;32066;49.474;11.106;2024-01-16T06:11:32;12.90;;;6.47;;
46355;SDS011;32066;49.474;11.106;2024-01-16T06:14:03;14.00;;;6.53;;
46355;SDS011;32066;49.474;11.106;2024-01-16T06:16:32;13.35;;;7.35;;
46355;SDS011;32066;49.474;11.106;2024-01-16T06:19:00;14.93;;;6.85;;
46355;SDS011;32066;49.474;11.106;2024-01-16T06:21:29;13.43;;;7.10;;
46355;SDS011;32066;49.474;11.106;2024-01-16T06:23:58;10.27;;;6.20;;
46355;SDS011;32066;49.474;11.106;2024-01-16T06:26:29;14.57;;;6.57;;
46355;SDS011;32066;49.474;11.106;2024-01-16T06:28:58;12.93;;;6.38;;
46355;SDS011;32066;49.474;11.106;2024-01-16T06:31:26;12.30;;;6.78;;
46355;SDS011;32066;49.474;11.106;2024-01-16T06:33:55;10.88;;;6.40;;
46355;SDS011;32066;49.474;11.106;2024-01-16T06:36:24;12.10;;;6.70;;
46355;SDS011;32066;49.474;11.106;2024-01-16T06:38:52;11.45;;;6.88;;
46355;SDS011;32066;49.474;11.106;2024-01-16T06:41:21;10.95;;;6.40;;
46355;SDS011;32066;49.474;11.106;2024-01-16T06:43:52;12.90;;;6.80;;
46355;SDS011;32066;49.474;11.106;2024-01-16T06:46:21;11.35;;;6.47;;
46355;SDS011;32066;49.474;11.106;2024-01-16T06:48:50;11.35;;;6.65;;
46355;SDS011;32066;49.474;11.106;2024-01-16T06:51:19;12.63;;;7.25;;
46355;SDS011;32066;49.474;11.106;2024-01-16T06:53:47;14.10;;;6.80;;
46355;SDS011;32066;49.474;11.106;2024-01-16T06:56:16;14.00;;;6.85;;
46355;SDS011;32066;49.474;11.106;2024-01-16T06:58:45;11.98;;;6.50;;
46355;SDS011;32066;49.474;11.106;2024-01-16T07:01:16;13.68;;;7.10;;
46355;SDS011;32066;49.474;11.106;2024-01-16T07:03:44;12.35;;;6.88;;
46355;SDS011;32066;49.474;11.106;2024-01-16T07:06:13;11.57;;;6.78;;
46355;SDS011;32066;49.474;11.106;2024-01-16T07:08:42;12.52;;;6.82;;
46355;SDS011;32066;49.474;11.106;2024-01-16T07:11:10;12.13;;;7.35;;
46355;SDS011;32066;49.474;11.106;2024-01-16T07:13:39;14.23;;;6.95;;
46355;SDS011;32066;49.474;11.106;2024-01-16T07:16:09;13.50;;;6.82;;
46355;SDS011;32066;49.474;11.106;2024-01-16T07:18:42;12.40;;;6.97;;
46355;SDS011;32066;49.474;11.106;2024-01-16T07:21:17;13.52;;;6.93;;
46355;SDS011;32066;49.474;11.106;2024-01-16T07:23:46;12.50;;;7.65;;
46355;SDS011;32066;49.474;11.106;2024-01-16T07:26:15;14.20;;;7.00;;
46355;SDS011;32066;49.474;11.106;2024-01-16T07:28:44;13.60;;;6.95;;
46355;SDS011;32066;49.474;11.106;2024-01-16T07:31:13;12.85;;;7.88;;
46355;SDS011;32066;49.474;11.106;2024-01-16T07:33:44;12.02;;;6.90;;
46355;SDS011;32066;49.474;11.106;2024-01-16T07:36:13;16.15;;;6.88;;
46355;SDS011;32066;49.474;11.106;2024-01-16T07:38:42;16.50;;;8.05;;
46355;SDS011;32066;49.474;11.106;2024-01-16T07:41:10;14.40;;;7.10;;
46355;SDS011;32066;49.474;11.106;2024-01-16T07:43:39;13.40;;;7.85;;
46355;SDS011;32066;49.474;11.106;2024-01-16T07:46:08;12.07;;;6.70;;
46355;SDS011;32066;49.474;11.106;2024-01-16T07:48:36;10.93;;;6.80;;
46355;SDS011;32066;49.474;11.106;2024-01-16T07:51:08;13.85;;;6.63;;
46355;SDS011;32066;49.474;11.106;2024-01-16T07:53:36;13.07;;;7.30;;
46355;SDS011;32066;49.474;11.106;2024-01-16T07:56:05;15.07;;;7.22;;
46355;SDS011;32066;49.474;11.106;2024-01-16T07:58:34;14.02;;;7.75;;
46355;SDS011;32066;49.474;11.106;2024-01-16T08:01:03;12.57;;;6.93;;
46355;SDS011;32066;49.474;11.106;2024-01-16T08:03:31;12.13;;;6.65;;
46355;SDS011;32066;49.474;11.106;2024-01-16T08:06:00;14.43;;;7.18;;
46355;SDS011;32066;49.474;11.106;2024-01-16T08:08:31;11.18;;;6.65;;
46355;SDS011;32066;49.474;11.106;2024-01-16T08:11:00;15.00;;;7.50;;
46355;SDS011;32066;49.474;11.106;2024-01-16T08:13:29;11.90;;;7.53;;
46355;SDS011;32066;49.474;11.106;2024-01-16T08:15:58;12.85;;;7.00;;
46355;SDS011;32066;49.474;11.106;2024-01-16T08:18:26;16.30;;;7.53;;
46355;SDS011;32066;49.474;11.106;2024-01-16T08:20:56;13.98;;;7.00;;
46355;SDS011;32066;49.474;11.106;2024-01-16T08:23:25;12.52;;;7.05;;
46355;SDS011;32066;49.474;11.106;2024-01-16T08:25:56;18.80;;;8.43;;
46355;SDS011;32066;49.474;11.106;2024-01-16T08:28:26;11.75;;;7.38;;
46355;SDS011;32066;49.474;11.106;2024-01-16T08:30:54;14.68;;;7.22;;
46355;SDS011;32066;49.474;11.106;2024-01-16T08:33:24;15.25;;;6.97;;
46355;SDS011;32066;49.474;11.106;2024-01-16T08:35:52;12.35;;;7.38;;
46355;SDS011;32066;49.474;11.106;2024-01-16T08:38:21;12.57;;;7.32;;
46355;SDS011;32066;49.474;11.106;2024-01-16T08:40:50;12.10;;;6.97;;
46355;SDS011;32066;49.474;11.106;2024-01-16T08:43:21;16.48;;;6.93;;
46355;SDS011;32066;49.474;11.106;2024-01-16T08:45:50;12.05;;;6.53;;
46355;SDS011;32066;49.474;11.106;2024-01-16T08:48:18;14.80;;;6.90;;
46355;SDS011;32066;49.474;11.106;2024-01-16T08:50:47;13.00;;;6.28;;
46355;SDS011;32066;49.474;11.106;2024-01-16T08:53:16;13.80;;;7.25;;
46355;SDS011;32066;49.474;11.106;2024-01-16T08:55:44;13.48;;;7.30;;
46355;SDS011;32066;49.474;11.106;2024-01-16T08:58:13;12.80;;;6.82;;
46355;SDS011;32066;49.474;11.106;2024-01-16T09:00:44;14.60;;;6.35;;
46355;SDS011;32066;49.474;11.106;2024-01-16T09:03:13;14.93;;;6.93;;
46355;SDS011;32066;49.474;11.106;2024-01-16T09:05:43;12.52;;;6.45;;
46355;SDS011;32066;49.474;11.106;2024-01-16T09:08:12;15.52;;;8.00;;
46355;SDS011;32066;49.474;11.106;2024-01-16T09:10:40;13.27;;;7.53;;
46355;SDS011;32066;49.474;11.106;2024-01-16T09:13:09;13.82;;;6.93;;
46355;SDS011;32066;49.474;11.106;2024-01-16T09:15:38;12.75;;;6.97;;
46355;SDS011;32066;49.474;11.106;2024-01-16T09:18:09;13.88;;;7.25;;
46355;SDS011;32066;49.474;11.106;2024-01-16T09:20:38;14.15;;;6.70;;
46355;SDS011;32066;49.474;11.106;2024-01-16T09:23:06;12.82;;;6.35;;
46355;SDS011;32066;49.474;11.106;2024-01-16T09:25:35;13.38;;;7.45;;
46355;SDS011;32066;49.474;11.106;2024-01-16T09:28:04;12.45;;;6.72;;
46355;SDS011;32066;49.474;11.106;2024-01-16T09:30:33;16.88;;;7.10;;
46355;SDS011;32066;49.474;11.106;2024-01-16T09:33:02;15.45;;;6.72;;
46355;SDS011;32066;49.474;11.106;2024-01-16T09:35:34;10.85;;;6.55;;
46355;SDS011;32066;49.474;11.106;2024-01-16T09:38:04;11.88;;;6.20;;
46355;SDS011;32066;49.474;11.106;2024-01-16T09:40:33;12.80;;;6.95;;
46355;SDS011;32066;49.474;11.106;2024-01-16T09:43:02;11.70;;;5.97;;
46355;SDS011;32066;49.474;11.106;2024-01-16T09:45:33;16.90;;;7.25;;
46355;SDS011;32066;49.474;11.106;2024-01-16T09:48:06;11.85;;;6.53;;
46355;SDS011;32066;49.474;11.106;2024-01-16T09:50:39;12.35;;;6.68;;
46355;SDS011;32066;49.474;11.106;2024-01-16T09:53:07;13.25;;;6.85;;
46355;SDS011;32066;49.474;11.106;2024-01-16T09:55:36;13.43;;;6.80;;
46355;SDS011;32066;49.474;11.106;2024-01-16T09:58:05;11.70;;;6.28;;
46355;SDS011;32066;49.474;11.106;2024-01-16T10:00:37;14.60;;;6.85;;
46355;SDS011;32066;49.474;11.106;2024-01-16T10:03:06;13.75;;;6.68;;
46355;SDS011;32066;49.474;11.106;2024-01-16T10:05:40;14.00;;;7.13;;
46355;SDS011;32066;49.474;11.106;2024-01-16T10:08:10;12.45;;;6.35;;
46355;SDS011;32066;49.474;11.106;2024-01-16T10:10:38;14.15;;;6.63;;
46355;SDS011;32066;49.474;11.106;2024-01-16T10:13:07;13.25;;;6.13;;
46355;SDS011;32066;49.474;11.106;2024-01-16T10:15:36;14.88;;;7.22;;
46355;SDS011;32066;49.474;11.106;2024-01-16T10:18:06;12.80;;;6.40;;
46355;SDS011;32066;49.474;11.106;2024-01-16T10:20:52;16.85;;;7.45;;
46355;SDS011;32066;49.474;11.106;2024-01-16T10:23:24;12.43;;;6.45;;
46355;SDS011;32066;49.474;11.106;2024-01-16T10:26:06;13.20;;;6.20;;
46355;SDS011;32066;49.474;11.106;2024-01-16T10:28:36;13.35;;;6.35;;
46355;SDS011;32066;49.474;11.106;2024-01-16T10:31:06;15.70;;;8.00;;
46355;SDS011;32066;49.474;11.106;2024-01-16T10:33:36;12.43;;;6.70;;
46355;SDS011;32066;49.474;11.106;2024-01-16T10:36:11;11.40;;;6.22;;
46355;SDS011;32066;49.474;11.106;2024-01-16T10:38:41;13.77;;;6.68;;
46355;SDS011;32066;49.474;11.106;2024-01-16T10:41:11;15.57;;;6.80;;
46355;SDS011;32066;49.474;11.106;2024-01-16T10:43:42;14.25;;;6.80;;
46355;SDS011;32066;49.474;11.106;2024-01-16T10:46:12;11.75;;;6.18;;
46355;SDS011;32066;49.474;11.106;2024-01-16T10:48:42;16.05;;;7.35;;
46355;SDS011;32066;49.474;11.106;2024-01-16T10:51:16;12.52;;;6.93;;
46355;SDS011;32066;49.474;11.106;2024-01-16T10:53:45;12.18;;;6.63;;
46355;SDS011;32066;49.474;11.106;2024-01-16T10:56:14;11.98;;;7.07;;
46355;SDS011;32066;49.474;11.106;2024-01-16T10:58:46;12.85;;;6.78;;
46355;SDS011;32066;49.474;11.106;2024-01-16T11:01:19;13.38;;;6.53;;
46355;SDS011;32066;49.474;11.106;2024-01-16T11:03:49;11.57;;;6.28;;
46355;SDS011;32066;49.474;11.106;2024-01-16T11:06:22;13.02;;;6.85;;
46355;SDS011;32066;49.474;11.106;2024-01-16T11:08:51;12.18;;;6.57;;
46355;SDS011;32066;49.474;11.106;2024-01-16T11:11:21;12.57;;;6.95;;
46355;SDS011;32066;49.474;11.106;2024-01-16T11:13:51;11.32;;;6.15;;
46355;SDS011;32066;49.474;11.106;2024-01-16T11:16:20;14.25;;;6.55;;
46355;SDS011;32066;49.474;11.106;2024-01-16T11:18:50;10.43;;;6.05;;
46355;SDS011;32066;49.474;11.106;2024-01-16T11:21:22;11.77;;;6.30;;
46355;SDS011;32066;49.474;11.106;2024-01-16T11:23:51;12.07;;;6.13;;
46355;SDS011;32066;49.474;11.106;2024-01-16T11:26:24;12.23;;;6.10;;
46355;SDS011;32066;49.474;11.106;2024-01-16T11:28:51;12.07;;;6.05;;
46355;SDS011;32066;49.474;11.106;2024-01-16T11:31:27;10.80;;;6.05;;
46355;SDS011;32066;49.474;11.106;2024-01-16T11:34:00;11.18;;;5.80;;
46355;SDS011;32066;49.474;11.106;2024-01-16T11:36:46;11.27;;;5.75;;
46355;SDS011;32066;49.474;11.106;2024-01-16T11:39:20;11.60;;;6.15;;
46355;SDS011;32066;49.474;11.106;2024-01-16T11:41:51;11.15;;;6.25;;
46355;SDS011;32066;49.474;11.106;2024-01-16T11:44:36;13.30;;;6.07;;
46355;SDS011;32066;49.474;11.106;2024-01-16T11:47:08;13.25;;;5.70;;
46355;SDS011;32066;49.474;11.106;2024-01-16T11:49:39;13.63;;;6.03;;
46355;SDS011;32066;49.474;11.106;2024-01-16T11:52:10;11.07;;;5.63;;
46355;SDS011;32066;49.474;11.106;2024-01-16T11:54:41;12.82;;;5.53;;
46355;SDS011;32066;49.474;11.106;2024-01-16T12:00:21;10.50;;;5.60;;
46355;SDS011;32066;49.474;11.106;2024-01-16T12:02:51;13.75;;;5.53;;
46355;SDS011;32066;49.474;11.106;2024-01-16T12:05:21;11.45;;;5.72;;
46355;SDS011;32066;49.474;11.106;2024-01-16T12:07:50;11.70;;;5.78;;
46355;SDS011;32066;49.474;11.106;2024-01-16T12:10:20;11.18;;;5.35;;
46355;SDS011;32066;49.474;11.106;2024-01-16T12:12:50;12.50;;;5.80;;
46355;SDS011;32066;49.474;11.106;2024-01-16T12:15:25;10.77;;;5.85;;
46355;SDS011;32066;49.474;11.106;2024-01-16T12:17:56;13.63;;;5.32;;
46355;SDS011;32066;49.474;11.106;2024-01-16T12:20:25;11.32;;;5.00;;
46355;SDS011;32066;49.474;11.106;2024-01-16T12:22:59;9.75;;;5.05;;
46355;SDS011;32066;49.474;11.106;2024-01-16T12:25:29;8.80;;;5.10;;
46355;SDS011;32066;49.474;11.106;2024-01-16T12:27:58;13.60;;;5.72;;
46355;SDS011;32066;49.474;11.106;2024-01-16T12:30:29;10.95;;;5.45;;
46355;SDS011;32066;49.474;11.106;2024-01-16T12:33:05;11.00;;;5.47;;
46355;SDS011;32066;49.474;11.106;2024-01-16T12:35:35;9.80;;;5.50;;
46355;SDS011;32066;49.474;11.106;2024-01-16T12:38:07;10.75;;;4.85;;
46355;SDS011;32066;49.474;11.106;2024-01-16T12:40:38;10.30;;;5.18;;
46355;SDS011;32066;49.474;11.106;2024-01-16T12:43:08;8.43;;;4.93;;
46355;SDS011;32066;49.474;11.106;2024-01-16T12:45:37;10.73;;;5.03;;
46355;SDS011;32066;49.474;11.106;2024-01-16T12:48:06;12.18;;;5.32;;
46355;SDS011;32066;49.474;11.106;2024-01-16T12:50:38;11.48;;;5.55;;
46355;SDS011;32066;49.474;11.106;2024-01-16T12:53:10;11.90;;;4.65;;
46355;SDS011;32066;49.474;11.106;2024-01-16T12:55:41;12.50;;;4.75;;
46355;SDS011;32066;49.474;11.106;2024-01-16T12:58:14;9.48;;;4.57;;
46355;SDS011;32066;49.474;11.106;2024-01-16T13:00:44;9.80;;;4.72;;
46355;SDS011;32066;49.474;11.106;2024-01-16T13:03:15;10.40;;;4.30;;
46355;SDS011;32066;49.474;11.106;2024-01-16T13:05:45;11.10;;;5.30;;
46355;SDS011;32066;49.474;11.106;2024-01-16T13:08:24;11.13;;;5.35;;
46355;SDS011;32066;49.474;11.106;2024-01-16T13:11:03;10.27;;;5.10;;
46355;SDS011;32066;49.474;11.106;2024-01-16T13:13:32;13.90;;;6.32;;
46355;SDS011;32066;49.474;11.106;2024-01-16T13:16:02;11.57;;;5.20;;
46355;SDS011;32066;49.474;11.106;2024-01-16T13:18:33;11.73;;;5.13;;
46355;SDS011;32066;49.474;11.106;2024-01-16T13:21:02;10.90;;;4.55;;
46355;SDS011;32066;49.474;11.106;2024-01-16T13:23:34;9.35;;;4.40;;
46355;SDS011;32066;49.474;11.106;2024-01-16T13:26:03;11.27;;;5.18;;
46355;SDS011;32066;49.474;11.106;2024-01-16T13:28:32;11.25;;;4.30;;
46355;SDS011;32066;49.474;11.106;2024-01-16T13:31:01;11.30;;;4.65;;
46355;SDS011;32066;49.474;11.106;2024-01-16T13:33:29;8.82;;;4.38;;
46355;SDS011;32066;49.474;11.106;2024-01-16T13:35:58;9.70;;;4.55;;
46355;SDS011;32066;49.474;11.106;2024-01-16T13:38:29;10.38;;;4.57;;
46355;SDS011;32066;49.474;11.106;2024-01-16T13:41:01;10.70;;;4.60;;
46355;SDS011;32066;49.474;11.106;2024-01-16T13:43:30;8.80;;;4.20;;
46355;SDS011;32066;49.474;11.106;2024-01-16T13:45:58;8.95;;;4.40;;
46355;SDS011;32066;49.474;11.106;2024-01-16T13:48:28;8.38;;;3.88;;
46355;SDS011;32066;49.474;11.106;2024-01-16T13:50:57;10.68;;;4.18;;
46355;SDS011;32066;49.474;11.106;2024-01-16T13:53:25;9.70;;;4.40;;
46355;SDS011;32066;49.474;11.106;2024-01-16T13:55:54;10.85;;;4.00;;
46355;SDS011;32066;49.474;11.106;2024-01-16T13:58:26;8.30;;;4.20;;
46355;SDS011;32066;49.474;11.106;2024-01-16T14:00:54;8.68;;;4.13;;
46355;SDS011;32066;49.474;11.106;2024-01-16T14:03:23;9.32;;;3.72;;
46355;SDS011;32066;49.474;11.106;2024-01-16T14:05:51;10.13;;;3.90;;
46355;SDS011;32066;49.474;11.106;2024-01-16T14:08:21;9.57;;;3.88;;
46355;SDS011;32066;49.474;11.106;2024-01-16T14:10:49;8.73;;;3.92;;
46355;SDS011;32066;49.474;11.106;2024-01-16T14:13:18;9.95;;;3.90;;
46355;SDS011;32066;49.474;11.106;2024-01-16T14:15:50;7.47;;;3.75;;
46355;SDS011;32066;49.474;11.106;2024-01-16T14:18:18;8.52;;;3.50;;
46355;SDS011;32066;49.474;11.106;2024-01-16T14:20:48;9.75;;;3.90;;
46355;SDS011;32066;49.474;11.106;2024-01-16T14:23:16;8.82;;;3.65;;
46355;SDS011;32066;49.474;11.106;2024-01-16T14:25:46;9.40;;;3.53;;
46355;SDS011;32066;49.474;11.106;2024-01-16T14:28:14;8.93;;;3.22;;
46355;SDS011;32066;49.474;11.106;2024-01-16T14:30:40;7.50;;;3.50;;
46355;SDS011;32066;49.474;11.106;2024-01-16T14:33:13;8.15;;;3.55;;
46355;SDS011;32066;49.474;11.106;2024-01-16T14:35:42;9.15;;;3.90;;
46355;SDS011;32066;49.474;11.106;2024-01-16T14:38:11;6.85;;;3.33;;
46355;SDS011;32066;49.474;11.106;2024-01-16T14:40:40;7.40;;;3.40;;